sensor_id;sensor_type;location;lat;lon;timestamp;P1;durP1;ratioP1;P2;durP2;ratioP2
6217;SDS011;3142;48.206;11.550;2023-05-07T00:00:52;12.13;;;7.20;;
6217;SDS011;3142;48.206;11.550;2023-05-07T00:03:20;10.77;;;7.33;;
6217;SDS011;3142;48.206;11.550;2023-05-07T00:05:46;12.17;;;7.90;;
6217;SDS011;3142;48.206;11.550;2023-05-07T00:08:14;12.27;;;7.70;;
6217;SDS011;3142;48.206;11.550;2023-05-07T00:10:40;11.90;;;7.37;;
6217;SDS011;3142;48.206;11.550;2023-05-07T00:13:07;12.60;;;8.20;;
6217;SDS011;3142;48.206;11.550;2023-05-07T00:15:34;9.53;;;7.37;;
6217;SDS011;3142;48.206;11.550;2023-05-07T00:18:00;9.33;;;7.47;;
6217;SDS011;3142;48.206;11.550;2023-05-07T00:20:27;9.37;;;7.83;;
6217;SDS011;3142;48.206;11.550;2023-05-07T00:22:53;8.07;;;6.90;;
6217;SDS011;3142;48.206;11.550;2023-05-07T00:25:21;15.77;;;7.93;;
6217;SDS011;3142;48.206;11.550;2023-05-07T00:27:47;10.53;;;8.20;;
6217;SDS011;3142;48.206;11.550;2023-05-07T00:30:14;12.83;;;7.70;;
6217;SDS011;3142;48.206;11.550;2023-05-07T00:32:40;11.00;;;7.50;;
6217;SDS011;3142;48.206;11.550;2023-05-07T00:35:07;9.47;;;7.07;;
6217;SDS011;3142;48.206;11.550;2023-05-07T00:37:34;10.17;;;7.80;;
6217;SDS011;3142;48.206;11.550;2023-05-07T00:40:01;9.23;;;7.47;;
6217;SDS011;3142;48.206;11.550;2023-05-07T00:42:30;9.63;;;6.73;;
6217;SDS011;3142;48.206;11.550;2023-05-07T00:44:57;7.67;;;6.50;;
6217;SDS011;3142;48.206;11.550;2023-05-07T00:47:24;9.47;;;7.00;;
6217;SDS011;3142;48.206;11.550;2023-05-07T00:49:51;10.10;;;7.10;;
6217;SDS011;3142;48.206;11.550;2023-05-07T00:52:18;7.97;;;6.70;;
6217;SDS011;3142;48.206;11.550;2023-05-07T00:54:47;8.60;;;7.07;;
6217;SDS011;3142;48.206;11.550;2023-05-07T00:57:14;11.17;;;7.20;;
6217;SDS011;3142;48.206;11.550;2023-05-07T00:59:42;11.80;;;7.30;;
6217;SDS011;3142;48.206;11.550;2023-05-07T01:02:09;11.90;;;6.83;;
6217;SDS011;3142;48.206;11.550;2023-05-07T01:04:36;7.83;;;6.83;;
6217;SDS011;3142;48.206;11.550;2023-05-07T01:07:02;9.20;;;7.17;;
6217;SDS011;3142;48.206;11.550;2023-05-07T01:09:29;10.97;;;6.70;;
6217;SDS011;3142;48.206;11.550;2023-05-07T01:11:56;9.50;;;7.43;;
6217;SDS011;3142;48.206;11.550;2023-05-07T01:14:24;8.40;;;6.57;;
6217;SDS011;3142;48.206;11.550;2023-05-07T01:16:52;9.57;;;6.80;;
6217;SDS011;3142;48.206;11.550;2023-05-07T01:19:19;9.03;;;7.17;;
6217;SDS011;3142;48.206;11.550;2023-05-07T01:21:47;9.80;;;7.03;;
6217;SDS011;3142;48.206;11.550;2023-05-07T01:24:16;8.80;;;6.97;;
6217;SDS011;3142;48.206;11.550;2023-05-07T01:26:42;9.50;;;6.77;;
6217;SDS011;3142;48.206;11.550;2023-05-07T01:29:09;8.70;;;6.43;;
6217;SDS011;3142;48.206;11.550;2023-05-07T01:31:36;8.00;;;6.83;;
6217;SDS011;3142;48.206;11.550;2023-05-07T01:34:03;8.33;;;7.30;;
6217;SDS011;3142;48.206;11.550;2023-05-07T01:36:32;10.30;;;6.80;;
6217;SDS011;3142;48.206;11.550;2023-05-07T01:38:59;8.03;;;6.10;;
6217;SDS011;3142;48.206;11.550;2023-05-07T01:41:27;8.03;;;6.40;;
6217;SDS011;3142;48.206;11.550;2023-05-07T01:43:54;8.30;;;6.30;;
6217;SDS011;3142;48.206;11.550;2023-05-07T01:46:24;9.87;;;6.80;;
6217;SDS011;3142;48.206;11.550;2023-05-07T01:48:52;9.27;;;6.80;;
6217;SDS011;3142;48.206;11.550;2023-05-07T01:51:18;8.77;;;6.60;;
6217;SDS011;3142;48.206;11.550;2023-05-07T01:53:46;12.33;;;6.70;;
6217;SDS011;3142;48.206;11.550;2023-05-07T01:56:15;9.33;;;6.97;;
6217;SDS011;3142;48.206;11.550;2023-05-07T01:58:43;10.10;;;7.10;;
6217;SDS011;3142;48.206;11.550;2023-05-07T02:01:10;10.40;;;7.43;;
6217;SDS011;3142;48.206;11.550;2023-05-07T02:03:36;9.13;;;7.63;;
6217;SDS011;3142;48.206;11.550;2023-05-07T02:06:03;8.90;;;7.33;;
6217;SDS011;3142;48.206;11.550;2023-05-07T02:08:29;8.10;;;7.30;;
6217;SDS011;3142;48.206;11.550;2023-05-07T02:10:56;8.50;;;7.60;;
6217;SDS011;3142;48.206;11.550;2023-05-07T02:13:23;9.40;;;7.50;;
6217;SDS011;3142;48.206;11.550;2023-05-07T02:15:51;8.50;;;6.87;;
6217;SDS011;3142;48.206;11.550;2023-05-07T02:18:18;9.13;;;6.93;;
6217;SDS011;3142;48.206;11.550;2023-05-07T02:20:45;8.73;;;6.97;;
6217;SDS011;3142;48.206;11.550;2023-05-07T02:23:11;8.53;;;7.20;;
6217;SDS011;3142;48.206;11.550;2023-05-07T02:25:37;10.23;;;7.60;;
6217;SDS011;3142;48.206;11.550;2023-05-07T02:28:04;7.50;;;6.53;;
6217;SDS011;3142;48.206;11.550;2023-05-07T02:30:31;11.63;;;7.53;;
6217;SDS011;3142;48.206;11.550;2023-05-07T02:32:59;8.00;;;7.00;;
6217;SDS011;3142;48.206;11.550;2023-05-07T02:35:25;9.63;;;7.30;;
6217;SDS011;3142;48.206;11.550;2023-05-07T02:37:52;10.73;;;7.50;;
6217;SDS011;3142;48.206;11.550;2023-05-07T02:40:18;10.23;;;6.90;;
6217;SDS011;3142;48.206;11.550;2023-05-07T02:42:45;9.83;;;7.23;;
6217;SDS011;3142;48.206;11.550;2023-05-07T02:45:11;9.87;;;6.33;;
6217;SDS011;3142;48.206;11.550;2023-05-07T02:47:37;9.03;;;6.70;;
6217;SDS011;3142;48.206;11.550;2023-05-07T02:50:06;9.80;;;6.63;;
6217;SDS011;3142;48.206;11.550;2023-05-07T02:52:33;10.23;;;6.37;;
6217;SDS011;3142;48.206;11.550;2023-05-07T02:55:00;10.40;;;6.37;;
6217;SDS011;3142;48.206;11.550;2023-05-07T02:57:27;6.77;;;6.03;;
6217;SDS011;3142;48.206;11.550;2023-05-07T02:59:53;9.23;;;7.10;;
6217;SDS011;3142;48.206;11.550;2023-05-07T03:02:20;8.00;;;7.17;;
6217;SDS011;3142;48.206;11.550;2023-05-07T03:04:46;10.73;;;6.60;;
6217;SDS011;3142;48.206;11.550;2023-05-07T03:07:14;10.50;;;6.97;;
6217;SDS011;3142;48.206;11.550;2023-05-07T03:09:40;9.40;;;6.70;;
6217;SDS011;3142;48.206;11.550;2023-05-07T03:12:07;9.53;;;6.80;;
6217;SDS011;3142;48.206;11.550;2023-05-07T03:14:33;9.57;;;6.60;;
6217;SDS011;3142;48.206;11.550;2023-05-07T03:17:00;9.07;;;6.77;;
6217;SDS011;3142;48.206;11.550;2023-05-07T03:19:26;8.83;;;6.50;;
6217;SDS011;3142;48.206;11.550;2023-05-07T03:21:53;8.00;;;6.43;;
6217;SDS011;3142;48.206;11.550;2023-05-07T03:24:20;12.10;;;6.50;;
6217;SDS011;3142;48.206;11.550;2023-05-07T03:26:47;11.27;;;7.23;;
6217;SDS011;3142;48.206;11.550;2023-05-07T03:29:13;13.20;;;6.67;;
6217;SDS011;3142;48.206;11.550;2023-05-07T03:31:40;8.83;;;6.50;;
6217;SDS011;3142;48.206;11.550;2023-05-07T03:34:06;7.27;;;6.17;;
6217;SDS011;3142;48.206;11.550;2023-05-07T03:36:33;7.53;;;5.63;;
6217;SDS011;3142;48.206;11.550;2023-05-07T03:38:59;8.40;;;6.13;;
6217;SDS011;3142;48.206;11.550;2023-05-07T03:41:27;8.40;;;6.07;;
6217;SDS011;3142;48.206;11.550;2023-05-07T03:43:54;7.47;;;6.07;;
6217;SDS011;3142;48.206;11.550;2023-05-07T03:46:21;7.50;;;6.13;;
6217;SDS011;3142;48.206;11.550;2023-05-07T03:48:47;10.33;;;6.93;;
6217;SDS011;3142;48.206;11.550;2023-05-07T03:51:13;7.67;;;6.03;;
6217;SDS011;3142;48.206;11.550;2023-05-07T03:53:40;8.73;;;6.07;;
6217;SDS011;3142;48.206;11.550;2023-05-07T03:56:06;6.70;;;5.83;;
6217;SDS011;3142;48.206;11.550;2023-05-07T03:58:34;6.60;;;6.00;;
6217;SDS011;3142;48.206;11.550;2023-05-07T04:01:00;7.63;;;5.70;;
6217;SDS011;3142;48.206;11.550;2023-05-07T04:03:27;6.80;;;5.87;;
6217;SDS011;3142;48.206;11.550;2023-05-07T04:05:54;6.80;;;5.63;;
6217;SDS011;3142;48.206;11.550;2023-05-07T04:08:20;7.07;;;6.37;;
6217;SDS011;3142;48.206;11.550;2023-05-07T04:10:47;8.67;;;5.77;;
6217;SDS011;3142;48.206;11.550;2023-05-07T04:13:13;6.50;;;5.50;;
6217;SDS011;3142;48.206;11.550;2023-05-07T04:15:41;9.07;;;6.03;;
6217;SDS011;3142;48.206;11.550;2023-05-07T04:18:08;5.87;;;5.27;;
6217;SDS011;3142;48.206;11.550;2023-05-07T04:20:34;5.80;;;5.20;;
6217;SDS011;3142;48.206;11.550;2023-05-07T04:23:01;6.27;;;5.40;;
6217;SDS011;3142;48.206;11.550;2023-05-07T04:25:28;8.33;;;6.00;;
6217;SDS011;3142;48.206;11.550;2023-05-07T04:27:54;8.10;;;5.83;;
6217;SDS011;3142;48.206;11.550;2023-05-07T04:30:21;6.50;;;5.30;;
6217;SDS011;3142;48.206;11.550;2023-05-07T04:32:49;9.83;;;5.60;;
6217;SDS011;3142;48.206;11.550;2023-05-07T04:35:15;6.83;;;5.07;;
6217;SDS011;3142;48.206;11.550;2023-05-07T04:37:42;6.17;;;5.57;;
6217;SDS011;3142;48.206;11.550;2023-05-07T04:40:08;6.10;;;5.30;;
6217;SDS011;3142;48.206;11.550;2023-05-07T04:42:35;7.37;;;5.90;;
6217;SDS011;3142;48.206;11.550;2023-05-07T04:45:02;6.57;;;5.57;;
6217;SDS011;3142;48.206;11.550;2023-05-07T04:47:29;7.50;;;5.63;;
6217;SDS011;3142;48.206;11.550;2023-05-07T04:49:57;5.83;;;5.20;;
6217;SDS011;3142;48.206;11.550;2023-05-07T04:52:24;7.47;;;5.57;;
6217;SDS011;3142;48.206;11.550;2023-05-07T04:54:50;8.40;;;5.60;;
6217;SDS011;3142;48.206;11.550;2023-05-07T04:57:17;6.30;;;5.70;;
6217;SDS011;3142;48.206;11.550;2023-05-07T04:59:43;5.80;;;5.20;;
6217;SDS011;3142;48.206;11.550;2023-05-07T05:02:10;6.17;;;5.47;;
6217;SDS011;3142;48.206;11.550;2023-05-07T05:04:36;9.27;;;5.90;;
6217;SDS011;3142;48.206;11.550;2023-05-07T05:07:04;7.97;;;6.20;;
6217;SDS011;3142;48.206;11.550;2023-05-07T05:09:30;6.23;;;5.40;;
6217;SDS011;3142;48.206;11.550;2023-05-07T05:11:57;9.03;;;6.80;;
6217;SDS011;3142;48.206;11.550;2023-05-07T05:14:23;9.93;;;8.87;;
6217;SDS011;3142;48.206;11.550;2023-05-07T05:16:50;11.80;;;8.40;;
6217;SDS011;3142;48.206;11.550;2023-05-07T05:19:16;8.70;;;6.73;;
6217;SDS011;3142;48.206;11.550;2023-05-07T05:21:43;6.53;;;5.80;;
6217;SDS011;3142;48.206;11.550;2023-05-07T05:24:10;8.43;;;6.37;;
6217;SDS011;3142;48.206;11.550;2023-05-07T05:26:37;7.30;;;6.17;;
6217;SDS011;3142;48.206;11.550;2023-05-07T05:29:03;7.57;;;5.83;;
6217;SDS011;3142;48.206;11.550;2023-05-07T05:31:30;6.23;;;5.63;;
6217;SDS011;3142;48.206;11.550;2023-05-07T05:33:56;6.07;;;5.33;;
6217;SDS011;3142;48.206;11.550;2023-05-07T05:36:23;7.57;;;6.33;;
6217;SDS011;3142;48.206;11.550;2023-05-07T05:38:49;6.70;;;6.00;;
6217;SDS011;3142;48.206;11.550;2023-05-07T05:41:17;6.57;;;5.70;;
6217;SDS011;3142;48.206;11.550;2023-05-07T05:43:43;7.80;;;5.93;;
6217;SDS011;3142;48.206;11.550;2023-05-07T05:46:10;8.13;;;7.03;;
6217;SDS011;3142;48.206;11.550;2023-05-07T05:48:37;8.40;;;6.80;;
6217;SDS011;3142;48.206;11.550;2023-05-07T05:51:03;8.67;;;7.20;;
6217;SDS011;3142;48.206;11.550;2023-05-07T05:53:29;9.20;;;7.53;;
6217;SDS011;3142;48.206;11.550;2023-05-07T05:55:56;6.73;;;6.13;;
6217;SDS011;3142;48.206;11.550;2023-05-07T05:58:24;7.23;;;5.63;;
6217;SDS011;3142;48.206;11.550;2023-05-07T06:00:50;7.37;;;5.93;;
6217;SDS011;3142;48.206;11.550;2023-05-07T06:03:18;6.00;;;5.40;;
6217;SDS011;3142;48.206;11.550;2023-05-07T06:05:44;6.30;;;4.67;;
6217;SDS011;3142;48.206;11.550;2023-05-07T06:08:11;6.13;;;4.83;;
6217;SDS011;3142;48.206;11.550;2023-05-07T06:10:37;19.50;;;14.93;;
6217;SDS011;3142;48.206;11.550;2023-05-07T06:13:04;14.90;;;13.23;;
6217;SDS011;3142;48.206;11.550;2023-05-07T06:15:32;8.20;;;7.23;;
6217;SDS011;3142;48.206;11.550;2023-05-07T06:17:58;9.63;;;6.53;;
6217;SDS011;3142;48.206;11.550;2023-05-07T06:20:25;6.43;;;4.77;;
6217;SDS011;3142;48.206;11.550;2023-05-07T06:22:51;5.30;;;4.40;;
6217;SDS011;3142;48.206;11.550;2023-05-07T06:25:17;4.93;;;4.43;;
6217;SDS011;3142;48.206;11.550;2023-05-07T06:27:44;6.43;;;4.23;;
6217;SDS011;3142;48.206;11.550;2023-05-07T06:30:11;5.67;;;4.23;;
6217;SDS011;3142;48.206;11.550;2023-05-07T06:32:39;6.17;;;4.47;;
6217;SDS011;3142;48.206;11.550;2023-05-07T06:35:06;5.20;;;4.70;;
6217;SDS011;3142;48.206;11.550;2023-05-07T06:37:33;15.80;;;12.53;;
6217;SDS011;3142;48.206;11.550;2023-05-07T06:40:00;8.97;;;7.77;;
6217;SDS011;3142;48.206;11.550;2023-05-07T06:42:26;10.97;;;8.97;;
6217;SDS011;3142;48.206;11.550;2023-05-07T06:44:52;9.87;;;5.63;;
6217;SDS011;3142;48.206;11.550;2023-05-07T06:47:20;9.50;;;5.20;;
6217;SDS011;3142;48.206;11.550;2023-05-07T06:49:47;12.33;;;5.00;;
6217;SDS011;3142;48.206;11.550;2023-05-07T06:52:14;6.47;;;4.57;;
6217;SDS011;3142;48.206;11.550;2023-05-07T06:54:40;6.00;;;4.40;;
6217;SDS011;3142;48.206;11.550;2023-05-07T06:57:07;6.37;;;4.10;;
6217;SDS011;3142;48.206;11.550;2023-05-07T06:59:33;6.93;;;4.07;;
6217;SDS011;3142;48.206;11.550;2023-05-07T07:01:59;4.63;;;4.10;;
6217;SDS011;3142;48.206;11.550;2023-05-07T07:04:26;4.53;;;3.50;;
6217;SDS011;3142;48.206;11.550;2023-05-07T07:06:54;6.00;;;3.60;;
6217;SDS011;3142;48.206;11.550;2023-05-07T07:09:21;5.63;;;4.00;;
6217;SDS011;3142;48.206;11.550;2023-05-07T07:11:48;17.67;;;12.90;;
6217;SDS011;3142;48.206;11.550;2023-05-07T07:14:14;13.00;;;9.20;;
6217;SDS011;3142;48.206;11.550;2023-05-07T07:16:40;7.53;;;4.90;;
6217;SDS011;3142;48.206;11.550;2023-05-07T07:19:07;14.60;;;11.20;;
6217;SDS011;3142;48.206;11.550;2023-05-07T07:21:34;7.43;;;5.97;;
6217;SDS011;3142;48.206;11.550;2023-05-07T07:24:01;5.80;;;4.37;;
6217;SDS011;3142;48.206;11.550;2023-05-07T07:26:28;5.63;;;3.60;;
6217;SDS011;3142;48.206;11.550;2023-05-07T07:28:54;7.60;;;3.67;;
6217;SDS011;3142;48.206;11.550;2023-05-07T07:31:21;4.50;;;4.10;;
6217;SDS011;3142;48.206;11.550;2023-05-07T07:33:47;4.00;;;3.60;;
6217;SDS011;3142;48.206;11.550;2023-05-07T07:36:15;4.47;;;3.50;;
6217;SDS011;3142;48.206;11.550;2023-05-07T07:38:41;3.73;;;3.40;;
6217;SDS011;3142;48.206;11.550;2023-05-07T07:41:09;7.27;;;3.80;;
6217;SDS011;3142;48.206;11.550;2023-05-07T07:43:36;5.40;;;3.53;;
6217;SDS011;3142;48.206;11.550;2023-05-07T07:46:02;7.37;;;3.77;;
6217;SDS011;3142;48.206;11.550;2023-05-07T07:48:30;7.47;;;5.97;;
6217;SDS011;3142;48.206;11.550;2023-05-07T07:50:56;6.00;;;5.23;;
6217;SDS011;3142;48.206;11.550;2023-05-07T07:53:23;10.40;;;9.30;;
6217;SDS011;3142;48.206;11.550;2023-05-07T07:55:50;9.80;;;7.40;;
6217;SDS011;3142;48.206;11.550;2023-05-07T07:58:18;3.80;;;3.50;;
6217;SDS011;3142;48.206;11.550;2023-05-07T08:00:44;4.93;;;3.42;;
6217;SDS011;3142;48.206;11.550;2023-05-07T08:03:12;5.10;;;3.45;;
6217;SDS011;3142;48.206;11.550;2023-05-07T08:05:39;4.45;;;3.55;;
6217;SDS011;3142;48.206;11.550;2023-05-07T08:08:05;3.78;;;3.13;;
6217;SDS011;3142;48.206;11.550;2023-05-07T08:10:32;5.20;;;3.83;;
6217;SDS011;3142;48.206;11.550;2023-05-07T08:13:00;5.47;;;3.67;;
6217;SDS011;3142;48.206;11.550;2023-05-07T08:15:27;5.75;;;3.65;;
6217;SDS011;3142;48.206;11.550;2023-05-07T08:17:54;5.57;;;5.03;;
6217;SDS011;3142;48.206;11.550;2023-05-07T08:20:22;6.25;;;4.38;;
6217;SDS011;3142;48.206;11.550;2023-05-07T08:22:48;16.35;;;13.88;;
6217;SDS011;3142;48.206;11.550;2023-05-07T08:25:15;13.43;;;10.57;;
6217;SDS011;3142;48.206;11.550;2023-05-07T08:27:41;4.88;;;4.38;;
6217;SDS011;3142;48.206;11.550;2023-05-07T08:30:10;6.88;;;3.80;;
6217;SDS011;3142;48.206;11.550;2023-05-07T08:32:38;4.65;;;3.40;;
6217;SDS011;3142;48.206;11.550;2023-05-07T08:35:05;5.85;;;3.70;;
6217;SDS011;3142;48.206;11.550;2023-05-07T08:37:32;7.28;;;4.95;;
6217;SDS011;3142;48.206;11.550;2023-05-07T08:39:58;4.28;;;3.80;;
6217;SDS011;3142;48.206;11.550;2023-05-07T08:42:25;4.22;;;3.40;;
6217;SDS011;3142;48.206;11.550;2023-05-07T08:44:54;6.47;;;3.28;;
6217;SDS011;3142;48.206;11.550;2023-05-07T08:47:25;7.35;;;5.97;;
6217;SDS011;3142;48.206;11.550;2023-05-07T08:50:00;4.15;;;3.05;;
6217;SDS011;3142;48.206;11.550;2023-05-07T08:52:28;3.25;;;2.78;;
6217;SDS011;3142;48.206;11.550;2023-05-07T08:54:54;3.63;;;2.95;;
6217;SDS011;3142;48.206;11.550;2023-05-07T08:57:20;7.85;;;5.57;;
6217;SDS011;3142;48.206;11.550;2023-05-07T08:59:49;13.00;;;10.75;;
6217;SDS011;3142;48.206;11.550;2023-05-07T09:02:15;24.00;;;20.98;;
6217;SDS011;3142;48.206;11.550;2023-05-07T09:04:43;8.93;;;8.05;;
6217;SDS011;3142;48.206;11.550;2023-05-07T09:07:11;6.38;;;3.55;;
6217;SDS011;3142;48.206;11.550;2023-05-07T09:09:37;5.45;;;3.50;;
6217;SDS011;3142;48.206;11.550;2023-05-07T09:12:04;4.57;;;2.75;;
6217;SDS011;3142;48.206;11.550;2023-05-07T09:14:30;5.03;;;3.17;;
6217;SDS011;3142;48.206;11.550;2023-05-07T09:16:57;4.13;;;3.75;;
6217;SDS011;3142;48.206;11.550;2023-05-07T09:19:24;3.53;;;3.22;;
6217;SDS011;3142;48.206;11.550;2023-05-07T09:21:57;4.65;;;3.05;;
6217;SDS011;3142;48.206;11.550;2023-05-07T09:24:25;3.42;;;3.05;;
6217;SDS011;3142;48.206;11.550;2023-05-07T09:26:53;4.38;;;2.85;;
6217;SDS011;3142;48.206;11.550;2023-05-07T09:29:20;4.15;;;3.30;;
6217;SDS011;3142;48.206;11.550;2023-05-07T09:31:47;3.28;;;2.63;;
6217;SDS011;3142;48.206;11.550;2023-05-07T09:34:13;3.33;;;2.55;;
6217;SDS011;3142;48.206;11.550;2023-05-07T09:36:39;4.70;;;2.90;;
6217;SDS011;3142;48.206;11.550;2023-05-07T09:39:06;3.72;;;3.13;;
6217;SDS011;3142;48.206;11.550;2023-05-07T09:41:36;5.38;;;3.75;;
6217;SDS011;3142;48.206;11.550;2023-05-07T09:44:10;9.85;;;7.30;;
6217;SDS011;3142;48.206;11.550;2023-05-07T09:46:36;10.27;;;8.55;;
6217;SDS011;3142;48.206;11.550;2023-05-07T09:49:04;14.50;;;12.98;;
6217;SDS011;3142;48.206;11.550;2023-05-07T09:51:41;4.00;;;3.38;;
6217;SDS011;3142;48.206;11.550;2023-05-07T09:54:13;3.15;;;2.85;;
6217;SDS011;3142;48.206;11.550;2023-05-07T09:56:42;3.38;;;3.00;;
6217;SDS011;3142;48.206;11.550;2023-05-07T09:59:09;3.67;;;3.00;;
6217;SDS011;3142;48.206;11.550;2023-05-07T10:01:38;4.00;;;2.95;;
6217;SDS011;3142;48.206;11.550;2023-05-07T10:04:07;5.55;;;2.88;;
6217;SDS011;3142;48.206;11.550;2023-05-07T10:06:34;3.13;;;2.35;;
6217;SDS011;3142;48.206;11.550;2023-05-07T10:09:01;3.45;;;2.35;;
6217;SDS011;3142;48.206;11.550;2023-05-07T10:11:30;3.78;;;2.65;;
6217;SDS011;3142;48.206;11.550;2023-05-07T10:13:59;3.22;;;2.30;;
6217;SDS011;3142;48.206;11.550;2023-05-07T10:16:27;5.47;;;2.65;;
6217;SDS011;3142;48.206;11.550;2023-05-07T10:18:53;3.47;;;2.22;;
6217;SDS011;3142;48.206;11.550;2023-05-07T10:21:21;7.78;;;5.20;;
6217;SDS011;3142;48.206;11.550;2023-05-07T10:23:50;3.53;;;3.22;;
6217;SDS011;3142;48.206;11.550;2023-05-07T10:26:18;3.90;;;3.30;;
6217;SDS011;3142;48.206;11.550;2023-05-07T10:28:49;2.88;;;2.15;;
6217;SDS011;3142;48.206;11.550;2023-05-07T10:31:29;5.00;;;2.00;;
6217;SDS011;3142;48.206;11.550;2023-05-07T10:34:09;4.85;;;3.47;;
6217;SDS011;3142;48.206;11.550;2023-05-07T10:36:39;3.00;;;2.25;;
6217;SDS011;3142;48.206;11.550;2023-05-07T10:39:07;2.60;;;2.00;;
6217;SDS011;3142;48.206;11.550;2023-05-07T10:41:34;2.50;;;2.10;;
6217;SDS011;3142;48.206;11.550;2023-05-07T10:44:00;4.80;;;2.33;;
6217;SDS011;3142;48.206;11.550;2023-05-07T10:46:28;3.58;;;2.80;;
6217;SDS011;3142;48.206;11.550;2023-05-07T10:49:10;6.57;;;2.83;;
6217;SDS011;3142;48.206;11.550;2023-05-07T10:51:38;4.47;;;4.07;;
6217;SDS011;3142;48.206;11.550;2023-05-07T10:54:21;12.77;;;10.40;;
6217;SDS011;3142;48.206;11.550;2023-05-07T10:56:48;10.57;;;8.05;;
6217;SDS011;3142;48.206;11.550;2023-05-07T10:59:31;6.88;;;6.20;;
6217;SDS011;3142;48.206;11.550;2023-05-07T11:02:07;3.63;;;2.92;;
6217;SDS011;3142;48.206;11.550;2023-05-07T11:04:34;5.30;;;2.88;;
6217;SDS011;3142;48.206;11.550;2023-05-07T11:09:57;2.85;;;2.60;;
6217;SDS011;3142;48.206;11.550;2023-05-07T11:12:51;4.60;;;2.63;;
6217;SDS011;3142;48.206;11.550;2023-05-07T11:18:10;3.42;;;2.20;;
6217;SDS011;3142;48.206;11.550;2023-05-07T11:20:45;3.17;;;2.78;;
6217;SDS011;3142;48.206;11.550;2023-05-07T11:26:25;8.63;;;7.72;;
6217;SDS011;3142;48.206;11.550;2023-05-07T11:28:52;5.97;;;3.40;;
6217;SDS011;3142;48.206;11.550;2023-05-07T11:31:22;3.80;;;2.92;;
6217;SDS011;3142;48.206;11.550;2023-05-07T11:33:52;2.97;;;2.60;;
6217;SDS011;3142;48.206;11.550;2023-05-07T11:36:20;3.22;;;2.90;;
6217;SDS011;3142;48.206;11.550;2023-05-07T11:38:51;3.03;;;2.38;;
6217;SDS011;3142;48.206;11.550;2023-05-07T11:41:18;2.95;;;2.60;;
6217;SDS011;3142;48.206;11.550;2023-05-07T11:43:55;2.40;;;2.00;;
6217;SDS011;3142;48.206;11.550;2023-05-07T11:46:23;3.50;;;1.77;;
6217;SDS011;3142;48.206;11.550;2023-05-07T11:48:49;3.58;;;2.17;;
6217;SDS011;3142;48.206;11.550;2023-05-07T11:51:21;2.88;;;2.00;;
6217;SDS011;3142;48.206;11.550;2023-05-07T11:53:50;2.03;;;1.83;;
6217;SDS011;3142;48.206;11.550;2023-05-07T11:56:17;2.90;;;1.48;;
6217;SDS011;3142;48.206;11.550;2023-05-07T11:58:45;3.65;;;2.20;;
6217;SDS011;3142;48.206;11.550;2023-05-07T12:01:12;2.42;;;1.27;;
6217;SDS011;3142;48.206;11.550;2023-05-07T12:03:41;2.53;;;1.75;;
6217;SDS011;3142;48.206;11.550;2023-05-07T12:06:10;2.85;;;2.17;;
6217;SDS011;3142;48.206;11.550;2023-05-07T12:08:37;2.25;;;1.60;;
6217;SDS011;3142;48.206;11.550;2023-05-07T12:11:06;3.72;;;1.60;;
6217;SDS011;3142;48.206;11.550;2023-05-07T12:13:34;3.55;;;1.50;;
6217;SDS011;3142;48.206;11.550;2023-05-07T12:16:00;3.80;;;1.50;;
6217;SDS011;3142;48.206;11.550;2023-05-07T12:18:28;2.22;;;1.50;;
6217;SDS011;3142;48.206;11.550;2023-05-07T12:20:55;3.88;;;1.50;;
6217;SDS011;3142;48.206;11.550;2023-05-07T12:23:23;2.63;;;1.33;;
6217;SDS011;3142;48.206;11.550;2023-05-07T12:25:50;2.67;;;1.50;;
6217;SDS011;3142;48.206;11.550;2023-05-07T12:28:17;2.75;;;1.63;;
6217;SDS011;3142;48.206;11.550;2023-05-07T12:30:45;5.68;;;4.72;;
6217;SDS011;3142;48.206;11.550;2023-05-07T12:33:14;4.13;;;3.13;;
6217;SDS011;3142;48.206;11.550;2023-05-07T12:35:42;8.73;;;7.18;;
6217;SDS011;3142;48.206;11.550;2023-05-07T12:38:09;2.92;;;2.20;;
6217;SDS011;3142;48.206;11.550;2023-05-07T12:40:39;2.03;;;1.85;;
6217;SDS011;3142;48.206;11.550;2023-05-07T12:43:06;3.70;;;1.38;;
6217;SDS011;3142;48.206;11.550;2023-05-07T12:45:36;2.60;;;1.60;;
6217;SDS011;3142;48.206;11.550;2023-05-07T12:48:03;3.60;;;1.52;;
6217;SDS011;3142;48.206;11.550;2023-05-07T12:50:32;3.00;;;1.80;;
6217;SDS011;3142;48.206;11.550;2023-05-07T12:52:59;3.95;;;1.25;;
6217;SDS011;3142;48.206;11.550;2023-05-07T12:55:28;1.80;;;1.50;;
6217;SDS011;3142;48.206;11.550;2023-05-07T12:57:56;2.40;;;1.48;;
6217;SDS011;3142;48.206;11.550;2023-05-07T13:00:32;2.20;;;1.50;;
6217;SDS011;3142;48.206;11.550;2023-05-07T13:03:00;6.22;;;1.73;;
6217;SDS011;3142;48.206;11.550;2023-05-07T13:05:26;2.78;;;2.17;;
6217;SDS011;3142;48.206;11.550;2023-05-07T13:07:53;1.80;;;1.70;;
6217;SDS011;3142;48.206;11.550;2023-05-07T13:10:19;3.72;;;1.35;;
6217;SDS011;3142;48.206;11.550;2023-05-07T13:12:46;2.00;;;1.50;;
6217;SDS011;3142;48.206;11.550;2023-05-07T13:15:14;2.08;;;1.60;;
6217;SDS011;3142;48.206;11.550;2023-05-07T13:17:40;4.72;;;1.98;;
6217;SDS011;3142;48.206;11.550;2023-05-07T13:20:08;2.38;;;2.17;;
6217;SDS011;3142;48.206;11.550;2023-05-07T13:22:36;5.15;;;2.00;;
6217;SDS011;3142;48.206;11.550;2023-05-07T13:25:02;4.28;;;2.13;;
6217;SDS011;3142;48.206;11.550;2023-05-07T13:27:29;2.97;;;2.28;;
6217;SDS011;3142;48.206;11.550;2023-05-07T13:29:56;3.28;;;1.92;;
6217;SDS011;3142;48.206;11.550;2023-05-07T13:32:24;4.60;;;2.20;;
6217;SDS011;3142;48.206;11.550;2023-05-07T13:34:50;3.30;;;2.13;;
6217;SDS011;3142;48.206;11.550;2023-05-07T13:37:17;2.38;;;2.08;;
6217;SDS011;3142;48.206;11.550;2023-05-07T13:39:43;3.72;;;1.83;;
6217;SDS011;3142;48.206;11.550;2023-05-07T13:42:10;2.53;;;1.98;;
6217;SDS011;3142;48.206;11.550;2023-05-07T13:44:37;2.00;;;1.85;;
6217;SDS011;3142;48.206;11.550;2023-05-07T13:47:03;2.33;;;2.00;;
6217;SDS011;3142;48.206;11.550;2023-05-07T13:49:31;2.10;;;1.83;;
6217;SDS011;3142;48.206;11.550;2023-05-07T13:51:57;2.97;;;2.20;;
6217;SDS011;3142;48.206;11.550;2023-05-07T13:54:24;3.22;;;2.90;;
6217;SDS011;3142;48.206;11.550;2023-05-07T13:56:50;3.65;;;3.35;;
6217;SDS011;3142;48.206;11.550;2023-05-07T13:59:17;4.40;;;4.00;;
6217;SDS011;3142;48.206;11.550;2023-05-07T14:01:43;5.55;;;4.95;;
6217;SDS011;3142;48.206;11.550;2023-05-07T14:04:09;5.60;;;4.63;;
6217;SDS011;3142;48.206;11.550;2023-05-07T14:06:37;4.47;;;3.10;;
6217;SDS011;3142;48.206;11.550;2023-05-07T14:09:04;2.42;;;2.22;;
6217;SDS011;3142;48.206;11.550;2023-05-07T14:11:30;4.68;;;2.10;;
6217;SDS011;3142;48.206;11.550;2023-05-07T14:13:57;5.65;;;2.38;;
6217;SDS011;3142;48.206;11.550;2023-05-07T14:16:23;2.40;;;2.10;;
6217;SDS011;3142;48.206;11.550;2023-05-07T14:18:50;16.52;;;14.38;;
6217;SDS011;3142;48.206;11.550;2023-05-07T14:21:16;10.27;;;8.70;;
6217;SDS011;3142;48.206;11.550;2023-05-07T14:23:44;10.57;;;8.18;;
6217;SDS011;3142;48.206;11.550;2023-05-07T14:26:10;6.30;;;5.35;;
6217;SDS011;3142;48.206;11.550;2023-05-07T14:28:37;4.43;;;2.47;;
6217;SDS011;3142;48.206;11.550;2023-05-07T14:31:04;2.88;;;2.20;;
6217;SDS011;3142;48.206;11.550;2023-05-07T14:33:31;2.35;;;2.00;;
6217;SDS011;3142;48.206;11.550;2023-05-07T14:35:57;3.30;;;2.42;;
6217;SDS011;3142;48.206;11.550;2023-05-07T14:38:24;3.22;;;2.20;;
6217;SDS011;3142;48.206;11.550;2023-05-07T14:40:52;4.32;;;2.22;;
6217;SDS011;3142;48.206;11.550;2023-05-07T14:43:20;6.13;;;2.35;;
6217;SDS011;3142;48.206;11.550;2023-05-07T14:45:47;3.67;;;2.25;;
6217;SDS011;3142;48.206;11.550;2023-05-07T14:48:13;2.72;;;2.33;;
6217;SDS011;3142;48.206;11.550;2023-05-07T14:50:40;3.65;;;2.65;;
6217;SDS011;3142;48.206;11.550;2023-05-07T14:53:06;4.88;;;2.58;;
6217;SDS011;3142;48.206;11.550;2023-05-07T14:55:33;3.53;;;2.38;;
6217;SDS011;3142;48.206;11.550;2023-05-07T14:58:01;2.30;;;2.10;;
6217;SDS011;3142;48.206;11.550;2023-05-07T15:00:28;2.75;;;1.90;;
6217;SDS011;3142;48.206;11.550;2023-05-07T15:02:54;2.00;;;1.88;;
6217;SDS011;3142;48.206;11.550;2023-05-07T15:05:28;2.55;;;1.90;;
6217;SDS011;3142;48.206;11.550;2023-05-07T15:07:55;3.67;;;2.33;;